Terminal Aerodrome Forecast
Issued by NWS

Home | Current Version | Previous Version | Graphics & Text | Print | Product List | Glossary On
Versions: 1 2 3 4 5 6 7 8 9 10 11 12 13 14 15 16 17 18 19
000
FTUS42 KMHX 011700 RRA
TAFISO
TAF
KISO 011741Z 0118/0218 04005KT 1 1/2SM SHRA BKN004 OVC010
     FM011900 07004KT 6SM -SHRA SCT010 BKN025
     FM020100 10003KT P6SM SCT025 BKN035
     FM020700 00000KT 2SM BR VCSH BKN007 OVC025
     FM021300 13005KT 5SM -SHRA SCT007 OVC025
      AMD LTD TO CLD VIS AND WIND=

USA.gov is the U.S. government's official web portal to all federal, state and local government web resources and services.